sensor_id;sensor_type;location;lat;lon;timestamp;P1;durP1;ratioP1;P2;durP2;ratioP2
45392;SDS011;31129;44.810;10.334;2023-01-19T00:00:13;99.47;;;49.58;;
45392;SDS011;31129;44.810;10.334;2023-01-19T00:02:41;95.75;;;49.10;;
45392;SDS011;31129;44.810;10.334;2023-01-19T00:05:07;102.30;;;50.65;;
45392;SDS011;31129;44.810;10.334;2023-01-19T00:07:33;96.28;;;49.72;;
45392;SDS011;31129;44.810;10.334;2023-01-19T00:09:58;100.78;;;49.33;;
45392;SDS011;31129;44.810;10.334;2023-01-19T00:12:24;97.85;;;48.47;;
45392;SDS011;31129;44.810;10.334;2023-01-19T00:14:50;98.50;;;50.58;;
45392;SDS011;31129;44.810;10.334;2023-01-19T00:17:15;95.15;;;48.80;;
45392;SDS011;31129;44.810;10.334;2023-01-19T00:19:41;100.93;;;49.45;;
45392;SDS011;31129;44.810;10.334;2023-01-19T00:22:09;100.90;;;50.60;;
45392;SDS011;31129;44.810;10.334;2023-01-19T00:24:35;101.15;;;49.75;;
45392;SDS011;31129;44.810;10.334;2023-01-19T00:27:00;94.95;;;49.50;;
45392;SDS011;31129;44.810;10.334;2023-01-19T00:29:28;95.15;;;49.35;;
45392;SDS011;31129;44.810;10.334;2023-01-19T00:32:01;99.32;;;50.35;;
45392;SDS011;31129;44.810;10.334;2023-01-19T00:34:28;101.35;;;49.80;;
45392;SDS011;31129;44.810;10.334;2023-01-19T00:37:07;97.75;;;48.75;;
45392;SDS011;31129;44.810;10.334;2023-01-19T00:39:34;99.10;;;49.10;;
45392;SDS011;31129;44.810;10.334;2023-01-19T00:41:59;101.60;;;51.92;;
45392;SDS011;31129;44.810;10.334;2023-01-19T00:44:43;103.25;;;50.28;;
45392;SDS011;31129;44.810;10.334;2023-01-19T00:47:08;102.15;;;51.03;;
45392;SDS011;31129;44.810;10.334;2023-01-19T00:49:34;100.78;;;49.28;;
45392;SDS011;31129;44.810;10.334;2023-01-19T00:51:59;103.13;;;50.85;;
45392;SDS011;31129;44.810;10.334;2023-01-19T00:54:25;106.15;;;51.28;;
45392;SDS011;31129;44.810;10.334;2023-01-19T00:56:50;99.28;;;49.72;;
45392;SDS011;31129;44.810;10.334;2023-01-19T00:59:16;102.82;;;50.35;;
45392;SDS011;31129;44.810;10.334;2023-01-19T01:01:41;106.00;;;50.60;;
45392;SDS011;31129;44.810;10.334;2023-01-19T01:04:06;111.00;;;51.40;;
45392;SDS011;31129;44.810;10.334;2023-01-19T01:06:32;109.10;;;51.58;;
45392;SDS011;31129;44.810;10.334;2023-01-19T01:08:57;110.22;;;51.70;;
45392;SDS011;31129;44.810;10.334;2023-01-19T01:11:23;110.85;;;51.35;;
45392;SDS011;31129;44.810;10.334;2023-01-19T01:13:48;106.63;;;50.75;;
45392;SDS011;31129;44.810;10.334;2023-01-19T01:16:14;111.97;;;52.20;;
45392;SDS011;31129;44.810;10.334;2023-01-19T01:18:41;118.88;;;53.13;;
45392;SDS011;31129;44.810;10.334;2023-01-19T01:21:09;109.47;;;50.97;;
45392;SDS011;31129;44.810;10.334;2023-01-19T01:23:37;115.45;;;54.97;;
45392;SDS011;31129;44.810;10.334;2023-01-19T01:26:02;116.82;;;52.05;;
45392;SDS011;31129;44.810;10.334;2023-01-19T01:28:28;103.65;;;50.58;;
45392;SDS011;31129;44.810;10.334;2023-01-19T01:30:54;104.70;;;48.75;;
45392;SDS011;31129;44.810;10.334;2023-01-19T01:33:21;88.38;;;39.55;;
45392;SDS011;31129;44.810;10.334;2023-01-19T01:35:47;108.00;;;48.35;;
45392;SDS011;31129;44.810;10.334;2023-01-19T01:38:13;113.47;;;55.05;;
45392;SDS011;31129;44.810;10.334;2023-01-19T01:40:39;110.20;;;49.97;;
45392;SDS011;31129;44.810;10.334;2023-01-19T01:43:09;113.25;;;50.03;;
45392;SDS011;31129;44.810;10.334;2023-01-19T01:45:36;112.30;;;51.05;;
45392;SDS011;31129;44.810;10.334;2023-01-19T01:50:55;109.93;;;49.90;;
45392;SDS011;31129;44.810;10.334;2023-01-19T01:53:52;111.68;;;52.33;;
45392;SDS011;31129;44.810;10.334;2023-01-19T01:56:44;107.07;;;50.63;;
45392;SDS011;31129;44.810;10.334;2023-01-19T01:59:13;124.72;;;53.55;;
45392;SDS011;31129;44.810;10.334;2023-01-19T02:01:50;115.43;;;53.78;;
45392;SDS011;31129;44.810;10.334;2023-01-19T02:04:36;119.72;;;54.78;;
45392;SDS011;31129;44.810;10.334;2023-01-19T02:07:02;122.50;;;55.42;;
45392;SDS011;31129;44.810;10.334;2023-01-19T02:09:46;112.25;;;51.47;;
45392;SDS011;31129;44.810;10.334;2023-01-19T02:12:30;112.85;;;52.47;;
45392;SDS011;31129;44.810;10.334;2023-01-19T02:15:16;119.15;;;54.85;;
45392;SDS011;31129;44.810;10.334;2023-01-19T02:17:43;110.43;;;51.90;;
45392;SDS011;31129;44.810;10.334;2023-01-19T02:20:08;113.28;;;52.03;;
45392;SDS011;31129;44.810;10.334;2023-01-19T02:22:37;115.85;;;53.72;;
45392;SDS011;31129;44.810;10.334;2023-01-19T02:25:09;106.90;;;49.08;;
45392;SDS011;31129;44.810;10.334;2023-01-19T02:27:34;111.55;;;52.72;;
45392;SDS011;31129;44.810;10.334;2023-01-19T02:30:02;102.82;;;50.33;;
45392;SDS011;31129;44.810;10.334;2023-01-19T02:32:28;107.03;;;48.80;;
45392;SDS011;31129;44.810;10.334;2023-01-19T02:34:54;101.93;;;51.85;;
45392;SDS011;31129;44.810;10.334;2023-01-19T02:39:52;100.20;;;45.67;;
45392;SDS011;31129;44.810;10.334;2023-01-19T02:42:21;92.60;;;46.10;;
45392;SDS011;31129;44.810;10.334;2023-01-19T02:44:49;90.38;;;41.30;;
45392;SDS011;31129;44.810;10.334;2023-01-19T02:47:18;77.07;;;39.80;;
45392;SDS011;31129;44.810;10.334;2023-01-19T02:49:44;72.07;;;36.13;;
45392;SDS011;31129;44.810;10.334;2023-01-19T02:52:17;65.38;;;33.15;;
45392;SDS011;31129;44.810;10.334;2023-01-19T02:57:45;62.03;;;32.00;;
45392;SDS011;31129;44.810;10.334;2023-01-19T03:03:33;63.85;;;32.55;;
45392;SDS011;31129;44.810;10.334;2023-01-19T03:06:17;63.17;;;33.88;;
45392;SDS011;31129;44.810;10.334;2023-01-19T03:09:05;60.80;;;33.22;;
45392;SDS011;31129;44.810;10.334;2023-01-19T03:11:37;63.42;;;31.75;;
45392;SDS011;31129;44.810;10.334;2023-01-19T03:14:19;59.95;;;30.52;;
45392;SDS011;31129;44.810;10.334;2023-01-19T03:16:51;69.95;;;35.53;;
45392;SDS011;31129;44.810;10.334;2023-01-19T03:19:25;71.70;;;37.90;;
45392;SDS011;31129;44.810;10.334;2023-01-19T03:22:00;70.72;;;36.38;;
45392;SDS011;31129;44.810;10.334;2023-01-19T03:24:33;67.20;;;35.90;;
45392;SDS011;31129;44.810;10.334;2023-01-19T03:27:11;71.75;;;37.72;;
45392;SDS011;31129;44.810;10.334;2023-01-19T03:29:58;71.40;;;37.00;;
45392;SDS011;31129;44.810;10.334;2023-01-19T03:32:32;74.15;;;36.08;;
45392;SDS011;31129;44.810;10.334;2023-01-19T03:35:02;71.05;;;33.05;;
45392;SDS011;31129;44.810;10.334;2023-01-19T03:37:32;67.35;;;34.78;;
45392;SDS011;31129;44.810;10.334;2023-01-19T03:40:02;63.50;;;32.38;;
45392;SDS011;31129;44.810;10.334;2023-01-19T03:42:28;65.10;;;32.38;;
45392;SDS011;31129;44.810;10.334;2023-01-19T03:44:56;57.05;;;28.52;;
45392;SDS011;31129;44.810;10.334;2023-01-19T03:47:25;61.92;;;31.15;;
45392;SDS011;31129;44.810;10.334;2023-01-19T03:49:51;56.28;;;28.17;;
45392;SDS011;31129;44.810;10.334;2023-01-19T03:52:25;55.83;;;29.30;;
45392;SDS011;31129;44.810;10.334;2023-01-19T03:54:52;56.95;;;28.70;;
45392;SDS011;31129;44.810;10.334;2023-01-19T03:57:17;51.17;;;27.08;;
45392;SDS011;31129;44.810;10.334;2023-01-19T03:59:42;52.30;;;27.30;;
45392;SDS011;31129;44.810;10.334;2023-01-19T04:02:08;56.38;;;27.17;;
45392;SDS011;31129;44.810;10.334;2023-01-19T04:04:33;51.45;;;27.00;;
45392;SDS011;31129;44.810;10.334;2023-01-19T04:06:59;51.25;;;25.58;;
45392;SDS011;31129;44.810;10.334;2023-01-19T04:09:25;47.17;;;24.45;;
45392;SDS011;31129;44.810;10.334;2023-01-19T04:11:51;43.72;;;24.85;;
45392;SDS011;31129;44.810;10.334;2023-01-19T04:14:17;50.28;;;25.95;;
45392;SDS011;31129;44.810;10.334;2023-01-19T04:16:42;41.70;;;22.77;;
45392;SDS011;31129;44.810;10.334;2023-01-19T04:19:08;42.35;;;23.35;;
45392;SDS011;31129;44.810;10.334;2023-01-19T04:21:33;38.03;;;20.67;;
45392;SDS011;31129;44.810;10.334;2023-01-19T04:23:59;37.13;;;21.92;;
45392;SDS011;31129;44.810;10.334;2023-01-19T04:26:25;40.60;;;22.42;;
45392;SDS011;31129;44.810;10.334;2023-01-19T04:28:50;44.22;;;24.30;;
45392;SDS011;31129;44.810;10.334;2023-01-19T04:31:15;43.25;;;23.33;;
45392;SDS011;31129;44.810;10.334;2023-01-19T04:33:43;41.78;;;23.15;;
45392;SDS011;31129;44.810;10.334;2023-01-19T04:36:08;39.83;;;23.08;;
45392;SDS011;31129;44.810;10.334;2023-01-19T04:38:34;38.42;;;20.75;;
45392;SDS011;31129;44.810;10.334;2023-01-19T04:40:59;33.70;;;17.85;;
45392;SDS011;31129;44.810;10.334;2023-01-19T04:43:25;32.53;;;17.23;;
45392;SDS011;31129;44.810;10.334;2023-01-19T04:45:50;31.67;;;18.10;;
45392;SDS011;31129;44.810;10.334;2023-01-19T04:48:16;31.30;;;16.92;;
45392;SDS011;31129;44.810;10.334;2023-01-19T04:50:42;31.73;;;17.98;;
45392;SDS011;31129;44.810;10.334;2023-01-19T04:53:08;28.80;;;16.58;;
45392;SDS011;31129;44.810;10.334;2023-01-19T04:55:35;30.63;;;16.88;;
45392;SDS011;31129;44.810;10.334;2023-01-19T04:58:01;29.02;;;16.58;;
45392;SDS011;31129;44.810;10.334;2023-01-19T05:00:27;30.85;;;16.58;;
45392;SDS011;31129;44.810;10.334;2023-01-19T05:02:52;26.13;;;14.40;;
45392;SDS011;31129;44.810;10.334;2023-01-19T05:05:18;27.42;;;15.57;;
45392;SDS011;31129;44.810;10.334;2023-01-19T05:07:43;25.00;;;13.60;;
45392;SDS011;31129;44.810;10.334;2023-01-19T05:10:09;25.50;;;14.80;;
45392;SDS011;31129;44.810;10.334;2023-01-19T05:12:35;25.15;;;14.02;;
45392;SDS011;31129;44.810;10.334;2023-01-19T05:15:01;26.25;;;14.95;;
45392;SDS011;31129;44.810;10.334;2023-01-19T05:17:27;25.80;;;12.90;;
45392;SDS011;31129;44.810;10.334;2023-01-19T05:19:53;24.17;;;12.52;;
45392;SDS011;31129;44.810;10.334;2023-01-19T05:22:18;25.27;;;14.57;;
45392;SDS011;31129;44.810;10.334;2023-01-19T05:24:44;21.70;;;13.18;;
45392;SDS011;31129;44.810;10.334;2023-01-19T05:27:09;19.77;;;12.70;;
45392;SDS011;31129;44.810;10.334;2023-01-19T05:29:35;22.90;;;13.52;;
45392;SDS011;31129;44.810;10.334;2023-01-19T05:32:03;21.13;;;12.40;;
45392;SDS011;31129;44.810;10.334;2023-01-19T05:34:29;18.00;;;10.88;;
45392;SDS011;31129;44.810;10.334;2023-01-19T05:36:54;20.48;;;11.85;;
45392;SDS011;31129;44.810;10.334;2023-01-19T05:39:20;18.70;;;11.57;;
45392;SDS011;31129;44.810;10.334;2023-01-19T05:41:45;16.65;;;9.35;;
45392;SDS011;31129;44.810;10.334;2023-01-19T05:44:12;17.83;;;10.43;;
45392;SDS011;31129;44.810;10.334;2023-01-19T05:46:38;14.65;;;8.80;;
45392;SDS011;31129;44.810;10.334;2023-01-19T05:49:04;15.73;;;9.82;;
45392;SDS011;31129;44.810;10.334;2023-01-19T05:51:34;15.90;;;10.38;;
45392;SDS011;31129;44.810;10.334;2023-01-19T05:54:05;17.02;;;10.35;;
45392;SDS011;31129;44.810;10.334;2023-01-19T05:56:31;17.65;;;9.57;;
45392;SDS011;31129;44.810;10.334;2023-01-19T05:58:57;13.90;;;9.18;;
45392;SDS011;31129;44.810;10.334;2023-01-19T06:01:23;12.60;;;7.90;;
45392;SDS011;31129;44.810;10.334;2023-01-19T06:03:49;13.60;;;9.07;;
45392;SDS011;31129;44.810;10.334;2023-01-19T06:06:15;15.10;;;8.85;;
45392;SDS011;31129;44.810;10.334;2023-01-19T06:08:41;13.02;;;8.55;;
45392;SDS011;31129;44.810;10.334;2023-01-19T06:11:06;12.20;;;7.88;;
45392;SDS011;31129;44.810;10.334;2023-01-19T06:13:32;13.23;;;8.90;;
45392;SDS011;31129;44.810;10.334;2023-01-19T06:15:58;11.75;;;7.55;;
45392;SDS011;31129;44.810;10.334;2023-01-19T06:18:25;12.68;;;7.95;;
45392;SDS011;31129;44.810;10.334;2023-01-19T06:20:51;12.52;;;8.45;;
45392;SDS011;31129;44.810;10.334;2023-01-19T06:23:25;13.77;;;8.35;;
45392;SDS011;31129;44.810;10.334;2023-01-19T06:25:54;12.10;;;8.52;;
45392;SDS011;31129;44.810;10.334;2023-01-19T06:28:20;14.05;;;9.57;;
45392;SDS011;31129;44.810;10.334;2023-01-19T06:30:49;16.95;;;10.40;;
45392;SDS011;31129;44.810;10.334;2023-01-19T06:33:16;15.10;;;8.90;;
45392;SDS011;31129;44.810;10.334;2023-01-19T06:35:42;23.30;;;10.93;;
45392;SDS011;31129;44.810;10.334;2023-01-19T06:38:09;17.10;;;10.00;;
45392;SDS011;31129;44.810;10.334;2023-01-19T06:40:34;16.83;;;10.20;;
45392;SDS011;31129;44.810;10.334;2023-01-19T06:43:00;15.93;;;9.55;;
45392;SDS011;31129;44.810;10.334;2023-01-19T06:45:25;14.45;;;9.50;;
45392;SDS011;31129;44.810;10.334;2023-01-19T06:47:51;18.17;;;10.80;;
45392;SDS011;31129;44.810;10.334;2023-01-19T06:50:16;18.77;;;11.30;;
45392;SDS011;31129;44.810;10.334;2023-01-19T06:55:13;18.98;;;11.15;;
45392;SDS011;31129;44.810;10.334;2023-01-19T06:57:39;16.98;;;10.25;;
45392;SDS011;31129;44.810;10.334;2023-01-19T07:00:05;17.17;;;10.25;;
45392;SDS011;31129;44.810;10.334;2023-01-19T07:02:33;18.97;;;11.23;;
45392;SDS011;31129;44.810;10.334;2023-01-19T07:04:59;15.70;;;10.63;;
45392;SDS011;31129;44.810;10.334;2023-01-19T07:07:24;16.00;;;10.15;;
45392;SDS011;31129;44.810;10.334;2023-01-19T07:09:51;17.00;;;10.18;;
45392;SDS011;31129;44.810;10.334;2023-01-19T07:12:17;14.57;;;9.63;;
45392;SDS011;31129;44.810;10.334;2023-01-19T07:14:42;14.57;;;10.00;;
45392;SDS011;31129;44.810;10.334;2023-01-19T07:17:08;15.57;;;9.93;;
45392;SDS011;31129;44.810;10.334;2023-01-19T07:19:33;13.10;;;9.25;;
45392;SDS011;31129;44.810;10.334;2023-01-19T07:21:59;16.00;;;10.77;;
45392;SDS011;31129;44.810;10.334;2023-01-19T07:24:26;16.83;;;11.25;;
45392;SDS011;31129;44.810;10.334;2023-01-19T07:26:51;18.85;;;11.18;;
45392;SDS011;31129;44.810;10.334;2023-01-19T07:29:17;19.10;;;11.40;;
45392;SDS011;31129;44.810;10.334;2023-01-19T07:31:42;18.75;;;10.90;;
45392;SDS011;31129;44.810;10.334;2023-01-19T07:34:08;17.92;;;11.20;;
45392;SDS011;31129;44.810;10.334;2023-01-19T07:36:33;19.17;;;10.95;;
45392;SDS011;31129;44.810;10.334;2023-01-19T07:39:00;16.50;;;11.05;;
45392;SDS011;31129;44.810;10.334;2023-01-19T07:41:25;18.27;;;10.93;;
45392;SDS011;31129;44.810;10.334;2023-01-19T07:43:51;18.55;;;11.77;;
45392;SDS011;31129;44.810;10.334;2023-01-19T07:46:17;17.15;;;10.68;;
45392;SDS011;31129;44.810;10.334;2023-01-19T07:48:42;18.75;;;11.60;;
45392;SDS011;31129;44.810;10.334;2023-01-19T07:51:09;20.77;;;11.88;;
45392;SDS011;31129;44.810;10.334;2023-01-19T07:53:36;17.33;;;10.00;;
45392;SDS011;31129;44.810;10.334;2023-01-19T07:56:02;17.00;;;11.23;;
45392;SDS011;31129;44.810;10.334;2023-01-19T07:58:31;14.68;;;10.20;;
45392;SDS011;31129;44.810;10.334;2023-01-19T08:00:57;16.90;;;9.60;;
45392;SDS011;31129;44.810;10.334;2023-01-19T08:03:22;9.35;;;5.88;;
45392;SDS011;31129;44.810;10.334;2023-01-19T08:05:48;14.90;;;8.50;;
45392;SDS011;31129;44.810;10.334;2023-01-19T08:08:15;13.20;;;9.18;;
45392;SDS011;31129;44.810;10.334;2023-01-19T08:10:41;13.75;;;8.70;;
45392;SDS011;31129;44.810;10.334;2023-01-19T08:13:06;13.05;;;8.40;;
45392;SDS011;31129;44.810;10.334;2023-01-19T08:15:32;14.57;;;9.18;;
45392;SDS011;31129;44.810;10.334;2023-01-19T08:17:58;16.35;;;9.23;;
45392;SDS011;31129;44.810;10.334;2023-01-19T08:20:25;16.40;;;9.13;;
45392;SDS011;31129;44.810;10.334;2023-01-19T08:22:52;17.77;;;9.75;;
45392;SDS011;31129;44.810;10.334;2023-01-19T08:25:24;16.20;;;9.40;;
45392;SDS011;31129;44.810;10.334;2023-01-19T08:27:54;14.80;;;9.40;;
45392;SDS011;31129;44.810;10.334;2023-01-19T08:30:20;17.17;;;10.32;;
45392;SDS011;31129;44.810;10.334;2023-01-19T08:32:46;20.83;;;10.70;;
45392;SDS011;31129;44.810;10.334;2023-01-19T08:35:11;19.33;;;10.05;;
45392;SDS011;31129;44.810;10.334;2023-01-19T08:37:36;16.73;;;10.45;;
45392;SDS011;31129;44.810;10.334;2023-01-19T08:40:02;17.00;;;9.93;;
45392;SDS011;31129;44.810;10.334;2023-01-19T08:42:28;19.33;;;10.77;;
45392;SDS011;31129;44.810;10.334;2023-01-19T08:44:54;19.10;;;10.93;;
45392;SDS011;31129;44.810;10.334;2023-01-19T08:47:20;19.52;;;11.38;;
45392;SDS011;31129;44.810;10.334;2023-01-19T08:49:45;19.27;;;11.68;;
45392;SDS011;31129;44.810;10.334;2023-01-19T08:52:11;17.98;;;10.95;;
45392;SDS011;31129;44.810;10.334;2023-01-19T08:54:36;21.60;;;12.45;;
45392;SDS011;31129;44.810;10.334;2023-01-19T08:57:01;19.10;;;11.48;;
45392;SDS011;31129;44.810;10.334;2023-01-19T08:59:27;19.17;;;11.57;;
45392;SDS011;31129;44.810;10.334;2023-01-19T09:01:52;20.27;;;11.82;;
45392;SDS011;31129;44.810;10.334;2023-01-19T09:04:18;21.17;;;12.73;;
45392;SDS011;31129;44.810;10.334;2023-01-19T09:06:43;23.58;;;13.07;;
45392;SDS011;31129;44.810;10.334;2023-01-19T09:09:08;23.65;;;13.85;;
45392;SDS011;31129;44.810;10.334;2023-01-19T09:11:34;22.45;;;11.95;;
45392;SDS011;31129;44.810;10.334;2023-01-19T09:13:59;26.33;;;14.43;;
45392;SDS011;31129;44.810;10.334;2023-01-19T09:16:25;26.65;;;14.43;;
45392;SDS011;31129;44.810;10.334;2023-01-19T09:18:51;28.08;;;14.82;;
45392;SDS011;31129;44.810;10.334;2023-01-19T09:21:17;20.88;;;12.57;;
45392;SDS011;31129;44.810;10.334;2023-01-19T09:23:43;22.33;;;13.45;;
45392;SDS011;31129;44.810;10.334;2023-01-19T09:26:09;24.48;;;14.13;;
45392;SDS011;31129;44.810;10.334;2023-01-19T09:28:35;19.83;;;12.27;;
45392;SDS011;31129;44.810;10.334;2023-01-19T09:31:05;22.10;;;13.23;;
45392;SDS011;31129;44.810;10.334;2023-01-19T09:33:31;19.20;;;12.18;;
45392;SDS011;31129;44.810;10.334;2023-01-19T09:35:57;21.45;;;12.95;;
45392;SDS011;31129;44.810;10.334;2023-01-19T09:38:23;19.75;;;12.43;;
45392;SDS011;31129;44.810;10.334;2023-01-19T09:40:51;21.63;;;12.02;;
45392;SDS011;31129;44.810;10.334;2023-01-19T09:45:59;18.15;;;12.23;;
45392;SDS011;31129;44.810;10.334;2023-01-19T09:48:37;19.65;;;12.02;;
45392;SDS011;31129;44.810;10.334;2023-01-19T09:51:09;18.67;;;11.85;;
45392;SDS011;31129;44.810;10.334;2023-01-19T09:53:51;18.48;;;11.52;;
45392;SDS011;31129;44.810;10.334;2023-01-19T09:56:20;15.93;;;10.68;;
45392;SDS011;31129;44.810;10.334;2023-01-19T09:58:47;18.02;;;11.48;;
45392;SDS011;31129;44.810;10.334;2023-01-19T10:10:08;16.40;;;9.75;;
45392;SDS011;31129;44.810;10.334;2023-01-19T10:12:51;14.18;;;9.10;;
45392;SDS011;31129;44.810;10.334;2023-01-19T10:26:24;15.35;;;10.43;;
45392;SDS011;31129;44.810;10.334;2023-01-19T10:31:36;17.25;;;10.82;;
45392;SDS011;31129;44.810;10.334;2023-01-19T10:34:03;15.80;;;10.18;;
45392;SDS011;31129;44.810;10.334;2023-01-19T10:36:33;18.65;;;11.10;;
45392;SDS011;31129;44.810;10.334;2023-01-19T10:39:02;22.50;;;11.30;;
45392;SDS011;31129;44.810;10.334;2023-01-19T10:44:08;16.40;;;11.10;;
45392;SDS011;31129;44.810;10.334;2023-01-19T10:46:44;19.60;;;11.98;;
45392;SDS011;31129;44.810;10.334;2023-01-19T10:49:45;20.08;;;11.38;;
45392;SDS011;31129;44.810;10.334;2023-01-19T10:55:00;21.85;;;12.27;;
45392;SDS011;31129;44.810;10.334;2023-01-19T10:57:29;23.27;;;12.27;;
45392;SDS011;31129;44.810;10.334;2023-01-19T10:59:57;19.70;;;11.95;;
45392;SDS011;31129;44.810;10.334;2023-01-19T11:02:23;20.27;;;11.80;;
45392;SDS011;31129;44.810;10.334;2023-01-19T11:04:52;19.73;;;11.77;;
45392;SDS011;31129;44.810;10.334;2023-01-19T11:07:29;18.80;;;11.30;;
45392;SDS011;31129;44.810;10.334;2023-01-19T11:12:42;17.08;;;11.07;;
45392;SDS011;31129;44.810;10.334;2023-01-19T11:17:46;16.23;;;11.23;;
45392;SDS011;31129;44.810;10.334;2023-01-19T11:20:20;20.02;;;11.73;;
45392;SDS011;31129;44.810;10.334;2023-01-19T11:22:48;18.85;;;11.88;;
45392;SDS011;31129;44.810;10.334;2023-01-19T11:25:29;16.02;;;10.48;;
45392;SDS011;31129;44.810;10.334;2023-01-19T11:27:56;16.90;;;11.00;;
45392;SDS011;31129;44.810;10.334;2023-01-19T11:30:25;18.60;;;12.07;;
45392;SDS011;31129;44.810;10.334;2023-01-19T11:32:51;17.10;;;10.65;;
45392;SDS011;31129;44.810;10.334;2023-01-19T11:35:36;17.98;;;11.77;;
45392;SDS011;31129;44.810;10.334;2023-01-19T11:38:04;20.50;;;12.50;;
45392;SDS011;31129;44.810;10.334;2023-01-19T11:40:36;16.42;;;11.77;;
45392;SDS011;31129;44.810;10.334;2023-01-19T11:43:09;17.08;;;11.60;;
45392;SDS011;31129;44.810;10.334;2023-01-19T11:45:36;17.20;;;11.30;;
45392;SDS011;31129;44.810;10.334;2023-01-19T11:48:03;15.50;;;10.63;;
45392;SDS011;31129;44.810;10.334;2023-01-19T11:50:38;17.23;;;12.07;;
45392;SDS011;31129;44.810;10.334;2023-01-19T11:55:55;21.48;;;13.43;;
45392;SDS011;31129;44.810;10.334;2023-01-19T11:58:29;16.85;;;11.23;;
45392;SDS011;31129;44.810;10.334;2023-01-19T12:00:59;19.35;;;12.75;;
45392;SDS011;31129;44.810;10.334;2023-01-19T12:06:09;16.23;;;11.18;;
45392;SDS011;31129;44.810;10.334;2023-01-19T12:08:43;18.48;;;12.35;;
45392;SDS011;31129;44.810;10.334;2023-01-19T12:11:14;22.27;;;12.25;;
45392;SDS011;31129;44.810;10.334;2023-01-19T12:13:43;18.65;;;11.95;;
45392;SDS011;31129;44.810;10.334;2023-01-19T12:16:20;16.73;;;10.02;;
45392;SDS011;31129;44.810;10.334;2023-01-19T12:18:47;12.75;;;8.65;;
45392;SDS011;31129;44.810;10.334;2023-01-19T12:21:18;16.55;;;9.75;;
45392;SDS011;31129;44.810;10.334;2023-01-19T12:28:41;17.50;;;11.75;;
45392;SDS011;31129;44.810;10.334;2023-01-19T12:31:09;17.73;;;10.95;;
45392;SDS011;31129;44.810;10.334;2023-01-19T12:33:42;19.42;;;11.88;;
45392;SDS011;31129;44.810;10.334;2023-01-19T12:41:38;20.30;;;13.40;;
45392;SDS011;31129;44.810;10.334;2023-01-19T12:46:36;15.55;;;9.65;;
45392;SDS011;31129;44.810;10.334;2023-01-19T12:51:51;18.40;;;11.80;;
45392;SDS011;31129;44.810;10.334;2023-01-19T12:57:08;18.05;;;11.70;;
45392;SDS011;31129;44.810;10.334;2023-01-19T12:59:42;17.30;;;11.77;;
45392;SDS011;31129;44.810;10.334;2023-01-19T13:18:50;18.30;;;11.18;;
45392;SDS011;31129;44.810;10.334;2023-01-19T13:24:14;13.07;;;9.13;;
45392;SDS011;31129;44.810;10.334;2023-01-19T13:29:29;14.60;;;8.90;;
45392;SDS011;31129;44.810;10.334;2023-01-19T13:32:00;14.20;;;9.75;;
45392;SDS011;31129;44.810;10.334;2023-01-19T13:34:29;15.50;;;9.50;;
45392;SDS011;31129;44.810;10.334;2023-01-19T13:37:21;15.88;;;9.48;;
45392;SDS011;31129;44.810;10.334;2023-01-19T13:39:51;11.93;;;8.35;;
45392;SDS011;31129;44.810;10.334;2023-01-19T13:42:27;14.32;;;9.00;;
45392;SDS011;31129;44.810;10.334;2023-01-19T13:44:53;13.10;;;9.48;;
45392;SDS011;31129;44.810;10.334;2023-01-19T13:47:28;15.50;;;9.93;;
45392;SDS011;31129;44.810;10.334;2023-01-19T13:50:03;13.95;;;10.10;;
45392;SDS011;31129;44.810;10.334;2023-01-19T13:52:29;15.57;;;10.07;;
45392;SDS011;31129;44.810;10.334;2023-01-19T13:54:59;14.98;;;9.15;;
45392;SDS011;31129;44.810;10.334;2023-01-19T13:57:47;14.57;;;9.65;;
45392;SDS011;31129;44.810;10.334;2023-01-19T14:05:33;12.07;;;8.20;;
45392;SDS011;31129;44.810;10.334;2023-01-19T14:10:41;16.75;;;9.10;;
45392;SDS011;31129;44.810;10.334;2023-01-19T14:15:57;24.23;;;10.52;;
45392;SDS011;31129;44.810;10.334;2023-01-19T14:18:28;14.23;;;9.48;;
45392;SDS011;31129;44.810;10.334;2023-01-19T14:21:08;14.00;;;10.02;;
45392;SDS011;31129;44.810;10.334;2023-01-19T14:23:47;11.55;;;8.63;;
45392;SDS011;31129;44.810;10.334;2023-01-19T14:37:01;15.05;;;10.40;;
45392;SDS011;31129;44.810;10.334;2023-01-19T14:39:29;15.10;;;10.02;;
45392;SDS011;31129;44.810;10.334;2023-01-19T14:41:57;16.00;;;10.60;;
45392;SDS011;31129;44.810;10.334;2023-01-19T14:46:59;15.00;;;10.32;;
45392;SDS011;31129;44.810;10.334;2023-01-19T14:49:29;18.25;;;10.93;;
45392;SDS011;31129;44.810;10.334;2023-01-19T14:51:59;15.88;;;10.52;;
45392;SDS011;31129;44.810;10.334;2023-01-19T14:54:28;15.55;;;10.75;;
45392;SDS011;31129;44.810;10.334;2023-01-19T14:57:00;15.90;;;10.80;;
45392;SDS011;31129;44.810;10.334;2023-01-19T14:59:25;16.23;;;10.07;;
45392;SDS011;31129;44.810;10.334;2023-01-19T15:01:51;15.45;;;10.25;;
45392;SDS011;31129;44.810;10.334;2023-01-19T15:04:16;17.48;;;10.30;;
45392;SDS011;31129;44.810;10.334;2023-01-19T15:06:41;16.90;;;11.13;;
45392;SDS011;31129;44.810;10.334;2023-01-19T15:09:13;18.70;;;11.32;;
45392;SDS011;31129;44.810;10.334;2023-01-19T15:11:39;16.10;;;10.57;;
45392;SDS011;31129;44.810;10.334;2023-01-19T15:14:07;13.10;;;9.63;;
45392;SDS011;31129;44.810;10.334;2023-01-19T15:16:37;15.13;;;10.50;;
45392;SDS011;31129;44.810;10.334;2023-01-19T15:19:02;14.60;;;10.70;;
45392;SDS011;31129;44.810;10.334;2023-01-19T15:21:28;14.98;;;10.15;;
45392;SDS011;31129;44.810;10.334;2023-01-19T15:23:54;15.13;;;10.60;;
45392;SDS011;31129;44.810;10.334;2023-01-19T15:26:20;18.10;;;10.80;;
45392;SDS011;31129;44.810;10.334;2023-01-19T15:28:48;12.18;;;8.95;;
45392;SDS011;31129;44.810;10.334;2023-01-19T15:31:14;18.15;;;9.55;;
45392;SDS011;31129;44.810;10.334;2023-01-19T15:33:42;13.98;;;10.05;;
45392;SDS011;31129;44.810;10.334;2023-01-19T15:36:18;20.58;;;11.18;;
45392;SDS011;31129;44.810;10.334;2023-01-19T15:38:46;13.95;;;10.45;;
45392;SDS011;31129;44.810;10.334;2023-01-19T15:41:22;16.40;;;10.52;;
45392;SDS011;31129;44.810;10.334;2023-01-19T15:43:50;14.70;;;9.88;;
45392;SDS011;31129;44.810;10.334;2023-01-19T15:46:17;15.13;;;10.38;;
45392;SDS011;31129;44.810;10.334;2023-01-19T15:48:45;15.80;;;11.30;;
45392;SDS011;31129;44.810;10.334;2023-01-19T15:51:12;15.30;;;9.73;;
45392;SDS011;31129;44.810;10.334;2023-01-19T15:53:39;12.70;;;9.68;;
45392;SDS011;31129;44.810;10.334;2023-01-19T15:56:05;13.88;;;9.10;;
45392;SDS011;31129;44.810;10.334;2023-01-19T15:58:35;12.55;;;8.93;;
45392;SDS011;31129;44.810;10.334;2023-01-19T16:01:01;14.05;;;9.10;;
45392;SDS011;31129;44.810;10.334;2023-01-19T16:03:26;16.10;;;9.07;;
45392;SDS011;31129;44.810;10.334;2023-01-19T16:05:52;12.40;;;8.60;;
45392;SDS011;31129;44.810;10.334;2023-01-19T16:08:17;13.38;;;8.95;;
45392;SDS011;31129;44.810;10.334;2023-01-19T16:10:43;15.05;;;10.18;;
45392;SDS011;31129;44.810;10.334;2023-01-19T16:13:09;15.48;;;10.18;;
45392;SDS011;31129;44.810;10.334;2023-01-19T16:15:50;13.32;;;10.27;;